Temp: 12.8°C   Baro: 995.1mb
  Wind: 4.9mph   Dir: SW (221°)
  Rain: 1.8mm (0.0mm/hr)
  Solar: 255W/m2  Hum: 83%
 
Bath Spa Weather Station Historical Data
Daily Summary for April 14, 2021 Units:  Metric    English   Both
Daily Weekly Monthly Yearly Custom
  High: Low: Average:
Temperature: 13.7 °C 2.8 °C 8.2 °C
Dew Point: 6 °C 0.6 °C 3.1 °C
Humidity: 92% 49.6% 70%
Wind Speed: 16.4km/h 0km/h 3.7km/h
Wind Gust: 25.7km/h - -
Wind- - East
Pressure: 1033.1 hPa 1031 hPa -
Precipitation: 0 mm    
Historical Graphs
 
 
Tabular Data for April 14, 2021
Time Temperature Dew Point Pressure Wind Wind Speed Wind Gust Humidity Rainfall Rate (Hourly) solar
00:04 6.2 °C 4.2 °C 1032.1 hPa Calm     84% 0 mm 0 W/m2
00:09 6.1 °C 4.1 °C 1032.1 hPa Calm     84% 0 mm 0 W/m2
00:14 6.1 °C 4.1 °C 1032.1 hPa Calm     84% 0 mm 0 W/m2
00:19 6.1 °C 4.1 °C 1032.1 hPa Calm     84% 0 mm 0 W/m2
00:24 6 °C 4 °C 1032.1 hPa Calm     84% 0 mm 0 W/m2
00:29 6 °C 4.2 °C 1032.1 hPa Calm     84.8% 0 mm 0 W/m2
00:34 5.9 °C 4.1 °C 1032.1 hPa Calm     85% 0 mm 0 W/m2
00:39 5.9 °C 4.1 °C 1032.1 hPa Calm     85% 0 mm 0 W/m2
00:44 5.8 °C 4.1 °C 1032.1 hPa Calm     85% 0 mm 0 W/m2
00:49 5.8 °C 4 °C 1032.1 hPa Calm     85% 0 mm 0 W/m2
00:54 5.7 °C 3.9 °C 1032.1 hPa Calm     85% 0 mm 0 W/m2
00:59 5.7 °C 3.9 °C 1032.1 hPa Calm     85.2% 0 mm 0 W/m2
01:04 5.7 °C 3.9 °C 1032.1 hPa Calm     85.8% 0 mm 0 W/m2
01:09 5.5 °C 3.7 °C 1032.1 hPa Calm     85.2% 0 mm 0 W/m2
01:14 5.4 °C 3.7 °C 1032.1 hPa Calm     86% 0 mm 0 W/m2
01:19 5.3 °C 3.6 °C 1032.1 hPa Calm     86% 0 mm 0 W/m2
01:24 5.3 °C 3.6 °C 1032.1 hPa Calm     86% 0 mm 0 W/m2
01:29 5.3 °C 3.6 °C 1032.1 hPa Calm     86% 0 mm 0 W/m2
01:34 5.3 °C 3.7 °C 1031.7 hPa Calm     86.8% 0 mm 0 W/m2
01:39 5.3 °C 3.8 °C 1031.7 hPa Calm     87% 0 mm 0 W/m2
01:44 5.3 °C 3.8 °C 1031.7 hPa Calm     87% 0 mm 0 W/m2
01:49 5.3 °C 3.8 °C 1031.7 hPa Calm     87% 0 mm 0 W/m2
01:54 5.2 °C 3.7 °C 1031.7 hPa Calm     87% 0 mm 0 W/m2
01:59 5.1 °C 3.6 °C 1031.7 hPa Calm     87% 0 mm 0 W/m2
02:04 4.9 °C 3.4 °C 1031.7 hPa Calm     87% 0 mm 0 W/m2
02:09 4.8 °C 3.3 °C 1031.7 hPa Calm     87% 0 mm 0 W/m2
02:14 4.8 °C 3.3 °C 1031.7 hPa Calm     87% 0 mm 0 W/m2
02:19 4.7 °C 3.2 °C 1031.7 hPa Calm     87% 0 mm 0 W/m2
02:24 4.6 °C 3.1 °C 1031.7 hPa Calm     87% 0 mm 0 W/m2
02:29 4.6 °C 3.3 °C 1031.7 hPa Calm     88% 0 mm 0 W/m2
02:34 4.4 °C 3.2 °C 1031.7 hPa Calm     88% 0 mm 0 W/m2
02:38 4.3 °C 3.1 °C 1031.7 hPa Calm     88% 0 mm 0 W/m2
02:44 4.3 °C 3 °C 1031.7 hPa Calm     88% 0 mm 0 W/m2
02:49 4.2 °C 2.9 °C 1031.7 hPa Calm     88% 0 mm 0 W/m2
02:54 4.2 °C 2.9 °C 1031.7 hPa Calm     88% 0 mm 0 W/m2
02:59 4.1 °C 2.8 °C 1031.7 hPa Calm     88% 0 mm 0 W/m2
03:04 3.9 °C 2.7 °C 1031.7 hPa Calm     88% 0 mm 0 W/m2
03:09 3.9 °C 2.6 °C 1031.7 hPa Calm     88.2% 0 mm 0 W/m2
03:14 3.9 °C 2.6 °C 1031.7 hPa Calm     88.2% 0 mm 0 W/m2
03:19 3.8 °C 2.7 °C 1032.1 hPa Calm     89% 0 mm 0 W/m2
03:24 3.8 °C 2.6 °C 1032.1 hPa Calm     89% 0 mm 0 W/m2
03:29 3.7 °C 2.5 °C 1032.1 hPa Calm     89% 0 mm 0 W/m2
03:34 3.6 °C 2.5 °C 1032.1 hPa Calm     89% 0 mm 0 W/m2
03:39 3.6 °C 2.5 °C 1032.1 hPa Calm     89% 0 mm 0 W/m2
03:44 3.4 °C 2.3 °C 1032.1 hPa Calm     89% 0 mm 0 W/m2
03:49 3.4 °C 2.3 °C 1032.1 hPa Calm     89% 0 mm 0 W/m2
03:54 3.4 °C 2.3 °C 1032.1 hPa WNW 2.6 km/h 4.8 km/h 89% 0 mm 0 W/m2
03:59 3.4 °C 2.3 °C 1032.1 hPa WNW 0.3 km/h 3.2 km/h 89% 0 mm 0 W/m2
04:04 3.3 °C 2.2 °C 1032.1 hPa Calm     89% 0 mm 0 W/m2
04:09 3.3 °C 2.2 °C 1032.1 hPa Calm     89% 0 mm 0 W/m2
04:14 3.2 °C 2.2 °C 1031.7 hPa Calm     89% 0 mm 0 W/m2
04:19 3 °C 1.9 °C 1031.7 hPa Calm     89% 0 mm 0 W/m2
04:24 2.8 °C 1.8 °C 1031.7 hPa Calm     89% 0 mm 0 W/m2
04:29 2.8 °C 1.8 °C 1031.7 hPa Calm     89.4% 0 mm 0 W/m2
04:34 2.8 °C 1.8 °C 1031.7 hPa Calm     90% 0 mm 0 W/m2
04:39 2.8 °C 1.8 °C 1031.7 hPa Calm     90% 0 mm 0 W/m2
04:44 2.8 °C 1.8 °C 1031.7 hPa Calm     90% 0 mm 0 W/m2
04:49 2.8 °C 1.8 °C 1031.7 hPa Calm     90% 0 mm 0 W/m2
04:54 2.9 °C 1.9 °C 1031.7 hPa Calm     90% 0 mm 0 W/m2
04:59 2.9 °C 1.9 °C 1031.7 hPa Calm     90% 0 mm 0 W/m2
05:04 2.9 °C 1.9 °C 1031.7 hPa Calm     90% 0 mm 0 W/m2
05:09 3.1 °C 2.1 °C 1031.7 hPa Calm     90% 0 mm 0 W/m2
05:14 3.1 °C 2.1 °C 1031.7 hPa Calm     90% 0 mm 0 W/m2
05:19 3.1 °C 2.1 °C 1031.7 hPa Calm     90% 0 mm 0 W/m2
05:24 3.1 °C 2.1 °C 1031.7 hPa Calm     90% 0 mm 0 W/m2
05:29 3.1 °C 2.1 °C 1031.7 hPa Calm   3.2 km/h 90% 0 mm 0 W/m2
05:34 3.1 °C 2.1 °C 1031.7 hPa Calm     90% 0 mm 0 W/m2
05:39 3.1 °C 2.1 °C 1031.7 hPa Calm     90% 0 mm 0 W/m2
05:44 3.1 °C 2.1 °C 1031.7 hPa Calm     90% 0 mm 0 W/m2
05:49 3.1 °C 2.1 °C 1031.7 hPa Calm   1.6 km/h 90% 0 mm 0 W/m2
05:54 3.2 °C 2.2 °C 1031.7 hPa Calm   1.6 km/h 90% 0 mm 0 W/m2
05:59 3.2 °C 2.2 °C 1031.7 hPa Calm     90% 0 mm 0 W/m2
06:04 3.2 °C 2.2 °C 1031.7 hPa Calm     90% 0 mm 0 W/m2
06:09 3.3 °C 2.4 °C 1031.7 hPa Calm     90.8% 0 mm 0 W/m2
06:14 3.3 °C 2.3 °C 1031.7 hPa Calm     90% 0 mm 0 W/m2
06:19 3.3 °C 2.4 °C 1032.1 hPa Calm     90.6% 0 mm 0 W/m2
06:24 3.3 °C 2.4 °C 1032.1 hPa Calm     90.8% 0 mm 5 W/m2
06:29 3.3 °C 2.5 °C 1032.1 hPa Calm     91% 0 mm 7 W/m2
06:34 3.3 °C 2.4 °C 1032.1 hPa Calm     91% 0 mm 9 W/m2
06:39 3.3 °C 2.5 °C 1032.1 hPa Calm     91% 0 mm 12 W/m2
06:44 3.3 °C 2.5 °C 1032.1 hPa Calm     91% 0 mm 16 W/m2
06:49 3.3 °C 2.5 °C 1032.1 hPa Calm     91% 0 mm 19 W/m2
06:54 3.4 °C 2.6 °C 1032.1 hPa Calm     91% 0 mm 26 W/m2
06:59 3.3 °C 2.6 °C 1032.1 hPa Calm     91% 0 mm 30 W/m2
07:04 3.3 °C 2.5 °C 1032.4 hPa Calm     91% 0 mm 35 W/m2
07:08 3.4 °C 2.6 °C 1032.4 hPa Calm     91% 0 mm 39 W/m2
07:14 3.3 °C 2.5 °C 1032.4 hPa Calm     91% 0 mm 40 W/m2
07:19 3.3 °C 2.5 °C 1032.4 hPa Calm     91% 0 mm 44 W/m2
07:24 3.3 °C 2.5 °C 1032.4 hPa Calm     91% 0 mm 47 W/m2
07:29 3.3 °C 2.5 °C 1032.4 hPa Calm     91% 0 mm 56 W/m2
07:34 3.2 °C 2.4 °C 1032.7 hPa Calm     91% 0 mm 65 W/m2
07:39 3.2 °C 2.4 °C 1032.7 hPa Calm     91% 0 mm 76 W/m2
07:44 3.2 °C 2.4 °C 1032.7 hPa Calm     91% 0 mm 88 W/m2
07:49 3.2 °C 2.4 °C 1032.7 hPa Calm     91.2% 0 mm 100 W/m2
07:54 3.3 °C 2.7 °C 1032.7 hPa Calm     92% 0 mm 128 W/m2
07:59 3.6 °C 2.8 °C 1032.7 hPa Calm     92% 0 mm 171 W/m2
08:04 3.8 °C 3.1 °C 1032.7 hPa Calm     92% 0 mm 195 W/m2
08:09 3.9 °C 3.2 °C 1032.7 hPa Calm     92% 0 mm 209 W/m2
08:14 4 °C 3.3 °C 1032.7 hPa Calm     92% 0 mm 206 W/m2
08:19 4.2 °C 3.5 °C 1032.7 hPa Calm     92% 0 mm 223 W/m2
08:24 4.4 °C 3.8 °C 1032.7 hPa WNW 0.3 km/h 3.2 km/h 92% 0 mm 220 W/m2
08:29 4.7 °C 3.9 °C 1032.7 hPa Calm   3.2 km/h 91.8% 0 mm 227 W/m2
08:34 4.8 °C 4 °C 1032.7 hPa Calm   1.6 km/h 91.2% 0 mm 220 W/m2
08:39 4.9 °C 4.1 °C 1032.7 hPa Calm     91% 0 mm 93 W/m2
08:44 5.1 °C 4.2 °C 1032.7 hPa Calm     91% 0 mm 176 W/m2
08:49 5.3 °C 4.3 °C 1032.7 hPa Calm     90.8% 0 mm 151 W/m2
08:54 5.7 °C 4.7 °C 1032.7 hPa Calm     90% 0 mm 281 W/m2
08:59 6.2 °C 5.1 °C 1032.4 hPa Calm     89.6% 0 mm 292 W/m2
09:04 6.3 °C 5 °C 1032.4 hPa Calm     88.2% 0 mm 315 W/m2
09:09 6.5 °C 5.1 °C 1032.7 hPa WNW 0.3 km/h 1.6 km/h 87.2% 0 mm 343 W/m2
09:14 6.9 °C 5.2 °C 1032.4 hPa Calm   1.6 km/h 86% 0 mm 362 W/m2
09:19 6.9 °C 4.9 °C 1032.7 hPa Calm   1.6 km/h 84.6% 0 mm 371 W/m2
09:24 7.1 °C 5.1 °C 1032.7 hPa Calm     84% 0 mm 387 W/m2
09:29 7.5 °C 5.3 °C 1032.7 hPa Calm     83% 0 mm 390 W/m2
09:34 7.6 °C 5.2 °C 1032.7 hPa WNW 1.3 km/h 4.8 km/h 82% 0 mm 415 W/m2
09:39 8 °C 5.4 °C 1032.7 hPa WNW 2.3 km/h 4.8 km/h 81% 0 mm 429 W/m2
09:44 8.3 °C 5.5 °C 1032.7 hPa WNW 1.6 km/h 4.8 km/h 79.6% 0 mm 446 W/m2
09:49 8.3 °C 5.3 °C 1032.7 hPa WNW 0.8 km/h 4.8 km/h 78.8% 0 mm 459 W/m2
09:54 8.7 °C 5.7 °C 1032.7 hPa WNW 2.6 km/h 6.4 km/h 78.4% 0 mm 473 W/m2
09:59 9.1 °C 5.8 °C 1032.7 hPa WNW 3.2 km/h 8 km/h 77.2% 0 mm 482 W/m2
10:04 9.8 °C 5.9 °C 1032.7 hPa WNW 4 km/h 9.7 km/h 74.4% 0 mm 494 W/m2
10:09 9.9 °C 5.8 °C 1032.7 hPa SW 4.5 km/h 9.7 km/h 73% 0 mm 503 W/m2
10:14 10.7 °C 6 °C 1032.7 hPa SSW 5.3 km/h 11.3 km/h 70.6% 0 mm 517 W/m2
10:19 10.8 °C 5.6 °C 1032.7 hPa SSW 4 km/h 11.3 km/h 68.2% 0 mm 529 W/m2
10:24 10.8 °C 5.1 °C 1032.7 hPa South 6.1 km/h 17.7 km/h 65.4% 0 mm 536 W/m2
10:29 10.8 °C 4.6 °C 1032.7 hPa SE 7.6 km/h 17.7 km/h 63.6% 0 mm 554 W/m2
10:34 11.3 °C 4.8 °C 1032.7 hPa ESE 10 km/h 17.7 km/h 62.2% 0 mm 561 W/m2
10:39 11.2 °C 4.6 °C 1032.7 hPa ESE 8 km/h 17.7 km/h 61.8% 0 mm 571 W/m2
10:44 11.3 °C 4.5 °C 1032.7 hPa ESE 9.3 km/h 17.7 km/h 61% 0 mm 582 W/m2
10:49 11.4 °C 3.8 °C 1032.7 hPa East 16.4 km/h 19.3 km/h 57.6% 0 mm 596 W/m2
10:54 11.6 °C 3.9 °C 1032.7 hPa East 8.5 km/h 20.9 km/h 57.6% 0 mm 606 W/m2
10:59 11.4 °C 3.6 °C 1032.7 hPa ENE 12.1 km/h 22.5 km/h 56.6% 0 mm 619 W/m2
11:04 11.5 °C 3.2 °C 1032.7 hPa ESE 9.5 km/h 20.9 km/h 54.6% 0 mm 645 W/m2
11:09 12.1 °C 3.3 °C 1032.7 hPa East 6.3 km/h 12.9 km/h 53.2% 0 mm 663 W/m2
11:14 12.3 °C 3.4 °C 1032.7 hPa East 4.8 km/h 16.1 km/h 52.8% 0 mm 671 W/m2
11:19 12.3 °C 3.6 °C 1032.7 hPa ESE 6 km/h 11.3 km/h 53.4% 0 mm 689 W/m2
11:24 12.5 °C 3.6 °C 1032.4 hPa East 6 km/h 19.3 km/h 52.8% 0 mm 712 W/m2
11:29 12.9 °C 3.8 °C 1032.7 hPa ENE 7.9 km/h 16.1 km/h 52.4% 0 mm 721 W/m2
11:34 13 °C 3.8 °C 1032.4 hPa East 4.5 km/h 12.9 km/h 52% 0 mm 731 W/m2
11:39 13.2 °C 3.7 °C 1032.4 hPa ESE 6.8 km/h 16.1 km/h 51% 0 mm 728 W/m2
11:44 12.4 °C 3.2 °C 1032.4 hPa SE 6 km/h 19.3 km/h 51.6% 0 mm 712 W/m2
11:49 12.6 °C 3.1 °C 1032.4 hPa ESE 6 km/h 16.1 km/h 50.6% 0 mm 700 W/m2
11:54 12.8 °C 3.5 °C 1032.4 hPa East 7.2 km/h 16.1 km/h 51.2% 0 mm 701 W/m2
11:59 13 °C 3.5 °C 1032.4 hPa ESE 9.3 km/h 12.9 km/h 50.8% 0 mm 703 W/m2
12:04 12.9 °C 3.4 °C 1032.4 hPa ENE 7.1 km/h 16.1 km/h 50.8% 0 mm 707 W/m2
12:09 13.1 °C 3.7 °C 1032.4 hPa NE 6.4 km/h 17.7 km/h 51.2% 0 mm 722 W/m2
12:14 13.3 °C 3.5 °C 1032.4 hPa NE 5 km/h 17.7 km/h 49.8% 0 mm 721 W/m2
12:19 13.7 °C 3.8 °C 1032.4 hPa ESE 3.5 km/h 12.9 km/h 49.8% 0 mm 775 W/m2
12:24 13.4 °C 3.6 °C 1032.4 hPa SE 5.6 km/h 16.1 km/h 49.6% 0 mm 800 W/m2
12:29 13.1 °C 3.6 °C 1032.1 hPa ESE 6.6 km/h 12.9 km/h 50.6% 0 mm 814 W/m2
12:34 12.9 °C 3.5 °C 1032.1 hPa NE 8.5 km/h 14.5 km/h 51% 0 mm 870 W/m2
12:39 12.4 °C 3.1 °C 1032.1 hPa NNE 5 km/h 14.5 km/h 51.6% 0 mm 905 W/m2
12:44 12.4 °C 3.4 °C 1032.1 hPa SE 6.6 km/h 12.9 km/h 52.2% 0 mm 905 W/m2
12:49 13.1 °C 3.6 °C 1032.1 hPa East 4.5 km/h 14.5 km/h 51% 0 mm 494 W/m2
12:54 13.1 °C 3.7 °C 1032.1 hPa ENE 2.9 km/h 11.3 km/h 51.2% 0 mm 320 W/m2
12:59 12.8 °C 3.3 °C 1032.1 hPa SE 10.3 km/h 16.1 km/h 50.8% 0 mm 287 W/m2
13:04 12.4 °C 3.6 °C 1032.1 hPa East 6.4 km/h 14.5 km/h 53% 0 mm 258 W/m2
13:09 12.8 °C 3.6 °C 1032.1 hPa East 1.6 km/h 11.3 km/h 52% 0 mm 211 W/m2
13:14 12.7 °C 3.3 °C 1032.1 hPa East 2.6 km/h 8 km/h 51% 0 mm 163 W/m2
13:19 12.2 °C 3.3 °C 1032.1 hPa East 5.3 km/h 8 km/h 52.8% 0 mm 130 W/m2
13:24 12.2 °C 3.6 °C 1032.1 hPa NE 2.9 km/h 14.5 km/h 54% 0 mm 156 W/m2
13:29 12.2 °C 3.6 °C 1032.1 hPa NE 5.8 km/h 11.3 km/h 53.8% 0 mm 197 W/m2
13:34 11.8 °C 3.4 °C 1032.1 hPa NNE 4.8 km/h 11.3 km/h 54.6% 0 mm 200 W/m2
13:39 11.9 °C 3.6 °C 1032.1 hPa NNE 4 km/h 11.3 km/h 55% 0 mm 227 W/m2
13:44 11.8 °C 3.6 °C 1032.1 hPa NNE 6.6 km/h 12.9 km/h 55.2% 0 mm 264 W/m2
13:49 11.8 °C 3.8 °C 1032.1 hPa NNE 8.5 km/h 14.5 km/h 56% 0 mm 279 W/m2
13:54 11.6 °C 3.6 °C 1032.1 hPa NNE 6.6 km/h 14.5 km/h 56% 0 mm 274 W/m2
13:59 11.6 °C 3.7 °C 1032.1 hPa NNE 9.3 km/h 12.9 km/h 56.8% 0 mm 265 W/m2
14:04 11.7 °C 3.9 °C 1032.1 hPa NNE 3.9 km/h 14.5 km/h 57% 0 mm 294 W/m2
14:09 12 °C 3.8 °C 1032.1 hPa NNE 6.6 km/h 11.3 km/h 55.4% 0 mm 313 W/m2
14:13 12 °C 3.8 °C 1032.1 hPa NE 7.1 km/h 14.5 km/h 55.5% 0 mm 374 W/m2
14:19 11.9 °C 3.9 °C 1032.1 hPa NNE 5.8 km/h 14.5 km/h 55.8% 0 mm 392 W/m2
14:24 12.6 °C 4.1 °C 1032.1 hPa NNE 5.1 km/h 9.7 km/h 54.4% 0 mm 768 W/m2
14:29 12.7 °C 3.9 °C 1032.1 hPa NNE 3.4 km/h 9.7 km/h 53.4% 0 mm 962 W/m2
14:34 12.8 °C 4.2 °C 1032.1 hPa NNE 4.7 km/h 11.3 km/h 54% 0 mm 320 W/m2
14:39 12.6 °C 3.9 °C 1032.1 hPa NE 6.8 km/h 19.3 km/h 53.6% 0 mm 283 W/m2
14:44 12.6 °C 3.9 °C 1032.1 hPa NE 8.7 km/h 16.1 km/h 53.8% 0 mm 313 W/m2
14:49 12.2 °C 3.6 °C 1032.1 hPa North 6.8 km/h 14.5 km/h 54% 0 mm 348 W/m2
14:54 12.3 °C 4 °C 1032.1 hPa NNE 7.2 km/h 12.9 km/h 55.2% 0 mm 359 W/m2
14:59 12.4 °C 3.7 °C 1032.1 hPa NE 9.2 km/h 17.7 km/h 53.6% 0 mm 341 W/m2
15:04 12.4 °C 3.8 °C 1032.1 hPa ENE 7.4 km/h 14.5 km/h 54.2% 0 mm 299 W/m2
15:09 12.7 °C 3.8 °C 1031.7 hPa ENE 5.1 km/h 12.9 km/h 53% 0 mm 278 W/m2
15:14 12.7 °C 3.8 °C 1031.7 hPa ENE 9.7 km/h 16.1 km/h 52.8% 0 mm 278 W/m2
15:19 12.2 °C 3.5 °C 1031.7 hPa NNE 9 km/h 16.1 km/h 53.4% 0 mm 288 W/m2
15:24 11.9 °C 3.7 °C 1031.7 hPa NNE 8.4 km/h 16.1 km/h 55% 0 mm 308 W/m2
15:29 12 °C 3.8 °C 1031.7 hPa ENE 8 km/h 16.1 km/h 55.6% 0 mm 383 W/m2
15:34 12.5 °C 4 °C 1031.7 hPa NE 7.9 km/h 16.1 km/h 54.4% 0 mm 446 W/m2
15:39 12.6 °C 4.1 °C 1031.7 hPa NE 8 km/h 22.5 km/h 54.2% 0 mm 489 W/m2
15:44 12.6 °C 3.9 °C 1031.7 hPa ENE 9.2 km/h 22.5 km/h 53.8% 0 mm 427 W/m2
15:49 12.9 °C 4.2 °C 1031.7 hPa ENE 4.7 km/h 17.7 km/h 53.6% 0 mm 464 W/m2
15:54 13.2 °C 4.3 °C 1031.7 hPa NE 10.9 km/h 17.7 km/h 53% 0 mm 550 W/m2
15:59 12.7 °C 3.9 °C 1031.7 hPa NNE 9.8 km/h 14.5 km/h 53.6% 0 mm 689 W/m2
16:04 12.6 °C 4.2 °C 1031.7 hPa NE 10.8 km/h 16.1 km/h 54.6% 0 mm 329 W/m2
16:09 12.5 °C 4 °C 1031.4 hPa NE 9.5 km/h 24.1 km/h 54.4% 0 mm 318 W/m2
16:14 12.4 °C 4 °C 1031.4 hPa NE 11.3 km/h 20.9 km/h 54.6% 0 mm 341 W/m2
16:19 12.5 °C 4.2 °C 1031.4 hPa NE 5.1 km/h 17.7 km/h 55% 0 mm 369 W/m2
16:24 12.8 °C 4.1 °C 1031.4 hPa ENE 5.3 km/h 14.5 km/h 53.8% 0 mm 431 W/m2
16:29 12.8 °C 4.1 °C 1031.4 hPa NNE 9 km/h 17.7 km/h 53.8% 0 mm 422 W/m2
16:34 12.7 °C 4 °C 1031.4 hPa NE 7.7 km/h 17.7 km/h 53.6% 0 mm 267 W/m2
16:39 12.6 °C 3.9 °C 1031.4 hPa NE 9.7 km/h 17.7 km/h 53.8% 0 mm 211 W/m2
16:44 12.4 °C 4.1 °C 1031.4 hPa East 5 km/h 16.1 km/h 54.8% 0 mm 186 W/m2
16:49 12.4 °C 4.2 °C 1031.4 hPa East 1.6 km/h 16.1 km/h 55.4% 0 mm 209 W/m2
16:54 12.6 °C 4.3 °C 1031.4 hPa ENE 4.8 km/h 14.5 km/h 55% 0 mm 357 W/m2
16:59 12.6 °C 4.3 °C 1031.4 hPa ENE 7.4 km/h 14.5 km/h 55% 0 mm 357 W/m2
17:04 12.4 °C 4.2 °C 1031.4 hPa NNE 6.1 km/h 12.9 km/h 55% 0 mm 274 W/m2
17:09 12.3 °C 4.1 °C 1031.4 hPa NE 6.3 km/h 11.3 km/h 55.4% 0 mm 262 W/m2
17:14 12.3 °C 4.1 °C 1031 hPa NE 5.8 km/h 11.3 km/h 55.4% 0 mm 352 W/m2
17:19 12.4 °C 4.2 °C 1031 hPa East 7.2 km/h 14.5 km/h 55.4% 0 mm 241 W/m2
17:24 12.5 °C 4.1 °C 1031 hPa ENE 3.2 km/h 14.5 km/h 54.6% 0 mm 195 W/m2
17:29 12.5 °C 3.8 °C 1031 hPa ENE 10.8 km/h 16.1 km/h 53.8% 0 mm 176 W/m2
17:34 12.3 °C 3.2 °C 1031 hPa NE 11.3 km/h 25.7 km/h 52.2% 0 mm 185 W/m2
17:39 12 °C 2.9 °C 1031 hPa ENE 13.2 km/h 24.1 km/h 52.2% 0 mm 185 W/m2
17:44 11.8 °C 2.7 °C 1031 hPa NE 12.9 km/h 20.9 km/h 52% 0 mm 204 W/m2
17:49 11.7 °C 2.7 °C 1031 hPa ENE 9.2 km/h 17.7 km/h 52.4% 0 mm 149 W/m2
17:54 11.7 °C 2.7 °C 1031 hPa East 9 km/h 19.3 km/h 52.2% 0 mm 132 W/m2
17:59 11.7 °C 2.6 °C 1031 hPa NE 10.9 km/h 20.9 km/h 52% 0 mm 125 W/m2
18:04 11.6 °C 2.5 °C 1031 hPa NE 7.9 km/h 17.7 km/h 52.2% 0 mm 116 W/m2
18:09 11.7 °C 2.8 °C 1031 hPa East 6.3 km/h 12.9 km/h 53% 0 mm 271 W/m2
18:14 11.7 °C 2.7 °C 1031 hPa East 5.6 km/h 14.5 km/h 52.4% 0 mm 260 W/m2
18:19 11.8 °C 2.7 °C 1031 hPa East 6.4 km/h 14.5 km/h 52% 0 mm 246 W/m2
18:24 12 °C 3.1 °C 1031 hPa ESE 4.2 km/h 11.3 km/h 52.4% 0 mm 225 W/m2
18:29 12.1 °C 2.9 °C 1031 hPa East 3.4 km/h 16.1 km/h 51.8% 0 mm 218 W/m2
18:34 12.3 °C 2.9 °C 1031 hPa East 7.1 km/h 16.1 km/h 51.2% 0 mm 197 W/m2
18:39 12.1 °C 2.4 °C 1031 hPa ESE 6.3 km/h 17.7 km/h 50.2% 0 mm 178 W/m2
18:44 11.8 °C 2.5 °C 1031 hPa ESE 4.3 km/h 12.9 km/h 51.2% 0 mm 158 W/m2
18:49 11.8 °C 2.7 °C 1031 hPa ESE 7.6 km/h 11.3 km/h 51.8% 0 mm 142 W/m2
18:54 11.7 °C 2.6 °C 1031 hPa ESE 7.9 km/h 12.9 km/h 51.6% 0 mm 125 W/m2
18:59 11.8 °C 2.6 °C 1031 hPa East 2.7 km/h 11.3 km/h 51.6% 0 mm 113 W/m2
19:04 12.1 °C 2.8 °C 1031 hPa ESE 4 km/h 8 km/h 51.4% 0 mm 98 W/m2
19:09 12.2 °C 2.5 °C 1031 hPa ENE 7.6 km/h 12.9 km/h 50% 0 mm 88 W/m2
19:14 12.1 °C 2.4 °C 1031 hPa ENE 2.7 km/h 12.9 km/h 50% 0 mm 76 W/m2
19:19 12.2 °C 2.4 °C 1031 hPa ENE 6 km/h 11.3 km/h 50% 0 mm 69 W/m2
19:24 12 °C 2.4 °C 1031 hPa East 7.7 km/h 17.7 km/h 50.4% 0 mm 54 W/m2
19:29 11.6 °C 2.4 °C 1031 hPa East 9.3 km/h 19.3 km/h 51.4% 0 mm 37 W/m2
19:34 11.3 °C 2.4 °C 1031 hPa East 11.6 km/h 17.7 km/h 52.8% 0 mm 25 W/m2
19:39 11.1 °C 2.3 °C 1031.4 hPa East 4.3 km/h 17.7 km/h 53% 0 mm 21 W/m2
19:44 10.9 °C 2.4 °C 1031.4 hPa ENE 3.4 km/h 11.3 km/h 54% 0 mm 19 W/m2
19:49 10.8 °C 2.2 °C 1031.4 hPa ENE 10 km/h 16.1 km/h 53.8% 0 mm 16 W/m2
19:54 10.6 °C 2.1 °C 1031.4 hPa ENE 2.7 km/h 17.7 km/h 54% 0 mm 12 W/m2
19:59 10.4 °C 2.2 °C 1031.4 hPa ENE 3.2 km/h 11.3 km/h 54.8% 0 mm 9 W/m2
20:04 10.3 °C 2.3 °C 1031.4 hPa East 4.7 km/h 12.9 km/h 56% 0 mm 7 W/m2
20:09 10.1 °C 2.3 °C 1031.7 hPa East 4.7 km/h 11.3 km/h 56.4% 0 mm 5 W/m2
20:14 9.9 °C 2.2 °C 1031.7 hPa ESE 4.2 km/h 14.5 km/h 56.8% 0 mm 0 W/m2
20:19 9.8 °C 2.2 °C 1031.7 hPa ESE 3.2 km/h 12.9 km/h 57.2% 0 mm 0 W/m2
20:24 9.7 °C 2.3 °C 1031.7 hPa ESE 3.1 km/h 12.9 km/h 58% 0 mm 0 W/m2
20:29 9.5 °C 2.3 °C 1031.7 hPa East 5.6 km/h 14.5 km/h 58.6% 0 mm 0 W/m2
20:34 9.3 °C 2.2 °C 1031.7 hPa East 5.8 km/h 14.5 km/h 59% 0 mm 0 W/m2
20:39 9.2 °C 2.2 °C 1032.1 hPa East 2.1 km/h 8 km/h 59.2% 0 mm 0 W/m2
20:44 9.1 °C 2.2 °C 1032.1 hPa East 3.1 km/h 8 km/h 60% 0 mm 0 W/m2
20:49 8.9 °C 2 °C 1032.1 hPa East 3.1 km/h 8 km/h 60% 0 mm 0 W/m2
20:54 8.7 °C 2.2 °C 1032.1 hPa East 3.7 km/h 9.7 km/h 61% 0 mm 0 W/m2
20:59 8.7 °C 2.1 °C 1032.1 hPa East 2.7 km/h 9.7 km/h 61% 0 mm 0 W/m2
21:04 8.6 °C 2.1 °C 1032.4 hPa East 3.5 km/h 8 km/h 61.3% 0 mm 0 W/m2
21:09 8.4 °C 2.1 °C 1032.4 hPa East 4.3 km/h 9.7 km/h 62% 0 mm 0 W/m2
21:14 8.4 °C 2.1 °C 1032.4 hPa East 5.3 km/h 11.3 km/h 62.4% 0 mm 0 W/m2
21:19 8.3 °C 2.1 °C 1032.4 hPa East 4 km/h 12.9 km/h 63% 0 mm 0 W/m2
21:24 8.2 °C 2 °C 1032.7 hPa ENE 5.3 km/h 11.3 km/h 63% 0 mm 0 W/m2
21:29 8.1 °C 2.1 °C 1032.7 hPa ENE 7.1 km/h 12.9 km/h 63.4% 0 mm 0 W/m2
21:34 8.1 °C 2.2 °C 1032.7 hPa ENE 7.6 km/h 12.9 km/h 64% 0 mm 0 W/m2
21:39 7.9 °C 2.1 °C 1032.7 hPa ENE 6.6 km/h 17.7 km/h 64.2% 0 mm 0 W/m2
21:44 7.8 °C 2.1 °C 1032.7 hPa ENE 4 km/h 11.3 km/h 65% 0 mm 0 W/m2
21:49 7.7 °C 2.1 °C 1032.7 hPa ENE 5 km/h 11.3 km/h 65.6% 0 mm 0 W/m2
21:54 7.6 °C 2.1 °C 1032.7 hPa ESE 5 km/h 14.5 km/h 66% 0 mm 0 W/m2
21:59 7.4 °C 2.1 °C 1032.7 hPa ESE 3.9 km/h 11.3 km/h 66.4% 0 mm 0 W/m2
22:04 7.3 °C 2.2 °C 1032.7 hPa ESE 4.7 km/h 11.3 km/h 67% 0 mm 0 W/m2
22:09 7.3 °C 2.1 °C 1032.7 hPa ESE 6 km/h 11.3 km/h 67.2% 0 mm 0 W/m2
22:14 7.2 °C 2.1 °C 1032.7 hPa East 4.5 km/h 12.9 km/h 67.6% 0 mm 0 W/m2
22:19 7.1 °C 2.1 °C 1032.7 hPa East 3.5 km/h 11.3 km/h 68% 0 mm 0 W/m2
22:24 7 °C 2 °C 1032.7 hPa East 4.8 km/h 14.5 km/h 68% 0 mm 0 W/m2
22:29 6.9 °C 1.9 °C 1032.7 hPa East 3.7 km/h 16.1 km/h 68% 0 mm 0 W/m2
22:34 6.8 °C 1.8 °C 1032.7 hPa ENE 7.7 km/h 20.9 km/h 68.2% 0 mm 0 W/m2
22:39 6.8 °C 1.9 °C 1032.7 hPa ENE 6.9 km/h 20.9 km/h 68.6% 0 mm 0 W/m2
22:44 6.7 °C 1.9 °C 1032.7 hPa ENE 6.3 km/h 14.5 km/h 69% 0 mm 0 W/m2
22:49 6.7 °C 1.8 °C 1033.1 hPa ENE 6 km/h 14.5 km/h 69% 0 mm 0 W/m2
22:54 6.6 °C 1.8 °C 1033.1 hPa ENE 6.6 km/h 14.5 km/h 69% 0 mm 0 W/m2
22:59 6.6 °C 1.7 °C 1033.1 hPa ENE 6.3 km/h 14.5 km/h 69% 0 mm 0 W/m2
23:04 6.4 °C 1.6 °C 1033.1 hPa ENE 4 km/h 9.7 km/h 69% 0 mm 0 W/m2
23:09 6.3 °C 1.5 °C 1033.1 hPa ENE 7.2 km/h 9.7 km/h 69.2% 0 mm 0 W/m2
23:14 6.2 °C 1.6 °C 1033.1 hPa ENE 5.3 km/h 12.9 km/h 70% 0 mm 0 W/m2
23:19 6.1 °C 1.5 °C 1033.1 hPa ENE 6.8 km/h 12.9 km/h 70% 0 mm 0 W/m2
23:24 6 °C 1.4 °C 1033.1 hPa ENE 5.6 km/h 9.7 km/h 70% 0 mm 0 W/m2
23:29 5.9 °C 1.3 °C 1033.1 hPa ENE 4 km/h 11.3 km/h 70% 0 mm 0 W/m2
23:34 5.8 °C 1.2 °C 1033.1 hPa ENE 4.7 km/h 9.7 km/h 70% 0 mm 0 W/m2
23:39 5.7 °C 1.1 °C 1033.1 hPa ENE 6.8 km/h 12.9 km/h 70% 0 mm 0 W/m2
23:44 5.6 °C 1 °C 1033.1 hPa ENE 3.2 km/h 11.3 km/h 70% 0 mm 0 W/m2
23:49 5.6 °C 0.9 °C 1033.1 hPa ENE 4.7 km/h 9.7 km/h 70% 0 mm 0 W/m2
23:54 5.4 °C 0.7 °C 1033.1 hPa ENE 7.4 km/h 11.3 km/h 69.6% 0 mm 0 W/m2
23:58 5.4 °C 0.6 °C 1033.1 hPa ENE 5.1 km/h 12.9 km/h 69% 0 mm 0 W/m2
Bath Spa Weather
Compliments of Weather Underground - 2 mb